sensor_id;sensor_type;location;lat;lon;timestamp;pressure;altitude;pressure_sealevel;temperature;humidity
20696;BME280;10507;52.754;13.040;2023-08-06T00:02:07;100421.03;;;16.10;100.00
20696;BME280;10507;52.754;13.040;2023-08-06T00:04:35;100426.41;;;16.10;100.00
20696;BME280;10507;52.754;13.040;2023-08-06T00:07:05;100426.41;;;16.10;100.00
20696;BME280;10507;52.754;13.040;2023-08-06T00:09:32;100439.13;;;16.08;100.00
20696;BME280;10507;52.754;13.040;2023-08-06T00:12:00;100438.28;;;16.08;100.00
20696;BME280;10507;52.754;13.040;2023-08-06T00:14:28;100441.34;;;16.03;100.00
20696;BME280;10507;52.754;13.040;2023-08-06T00:16:59;100454.91;;;16.02;100.00
20696;BME280;10507;52.754;13.040;2023-08-06T00:19:27;100468.38;;;16.02;100.00
20696;BME280;10507;52.754;13.040;2023-08-06T00:21:55;100480.97;;;16.01;100.00
20696;BME280;10507;52.754;13.040;2023-08-06T00:24:24;100483.53;;;16.03;100.00
20696;BME280;10507;52.754;13.040;2023-08-06T00:26:52;100474.09;;;15.97;100.00
20696;BME280;10507;52.754;13.040;2023-08-06T00:29:20;100468.81;;;15.95;100.00
20696;BME280;10507;52.754;13.040;2023-08-06T00:31:47;100480.59;;;15.94;100.00
20696;BME280;10507;52.754;13.040;2023-08-06T00:34:16;100485.34;;;15.91;100.00
20696;BME280;10507;52.754;13.040;2023-08-06T00:36:43;100507.50;;;15.94;100.00
20696;BME280;10507;52.754;13.040;2023-08-06T00:39:11;100510.31;;;15.93;100.00
20696;BME280;10507;52.754;13.040;2023-08-06T00:41:41;100519.34;;;15.92;100.00
20696;BME280;10507;52.754;13.040;2023-08-06T00:44:08;100518.63;;;15.90;100.00
20696;BME280;10507;52.754;13.040;2023-08-06T00:46:36;100532.81;;;15.92;100.00
20696;BME280;10507;52.754;13.040;2023-08-06T00:49:05;100532.09;;;15.90;100.00
20696;BME280;10507;52.754;13.040;2023-08-06T00:51:34;100539.94;;;15.93;100.00
20696;BME280;10507;52.754;13.040;2023-08-06T00:54:02;100538.44;;;15.89;100.00
20696;BME280;10507;52.754;13.040;2023-08-06T00:56:30;100528.75;;;15.86;100.00
20696;BME280;10507;52.754;13.040;2023-08-06T00:59:00;100554.59;;;15.89;100.00
20696;BME280;10507;52.754;13.040;2023-08-06T01:01:28;100544.81;;;15.88;100.00
20696;BME280;10507;52.754;13.040;2023-08-06T01:03:56;100563.53;;;15.89;100.00
20696;BME280;10507;52.754;13.040;2023-08-06T01:06:35;100573.44;;;15.89;100.00
20696;BME280;10507;52.754;13.040;2023-08-06T01:09:14;100576.97;;;15.89;100.00
20696;BME280;10507;52.754;13.040;2023-08-06T01:11:57;100575.28;;;15.88;100.00
20696;BME280;10507;52.754;13.040;2023-08-06T01:14:33;100569.25;;;15.85;100.00
20696;BME280;10507;52.754;13.040;2023-08-06T01:17:03;100574.28;;;15.89;100.00
20696;BME280;10507;52.754;13.040;2023-08-06T01:19:37;100568.28;;;15.86;100.00
20696;BME280;10507;52.754;13.040;2023-08-06T01:22:06;100564.84;;;15.84;100.00
20696;BME280;10507;52.754;13.040;2023-08-06T01:24:34;100583.59;;;15.85;100.00
20696;BME280;10507;52.754;13.040;2023-08-06T01:27:06;100603.16;;;15.87;100.00
20696;BME280;10507;52.754;13.040;2023-08-06T01:29:40;100581.00;;;15.84;100.00
20696;BME280;10507;52.754;13.040;2023-08-06T01:32:11;100590.28;;;15.79;100.00
20696;BME280;10507;52.754;13.040;2023-08-06T01:34:41;100602.88;;;15.79;100.00
20696;BME280;10507;52.754;13.040;2023-08-06T01:37:12;100625.28;;;15.79;100.00
20696;BME280;10507;52.754;13.040;2023-08-06T01:39:42;100628.94;;;15.78;100.00
20696;BME280;10507;52.754;13.040;2023-08-06T01:42:10;100626.44;;;15.75;100.00
20696;BME280;10507;52.754;13.040;2023-08-06T01:44:38;100622.16;;;15.73;100.00
20696;BME280;10507;52.754;13.040;2023-08-06T01:47:06;100630.44;;;15.70;100.00
20696;BME280;10507;52.754;13.040;2023-08-06T01:49:34;100632.25;;;15.69;100.00
20696;BME280;10507;52.754;13.040;2023-08-06T01:52:01;100651.88;;;15.71;100.00
20696;BME280;10507;52.754;13.040;2023-08-06T01:54:31;100655.59;;;15.69;100.00
20696;BME280;10507;52.754;13.040;2023-08-06T01:56:58;100669.06;;;15.69;100.00
20696;BME280;10507;52.754;13.040;2023-08-06T01:59:26;100672.75;;;15.68;100.00
20696;BME280;10507;52.754;13.040;2023-08-06T02:01:54;100693.00;;;15.73;100.00
20696;BME280;10507;52.754;13.040;2023-08-06T02:04:22;100701.84;;;15.75;100.00
20696;BME280;10507;52.754;13.040;2023-08-06T02:06:50;100708.94;;;15.76;100.00
20696;BME280;10507;52.754;13.040;2023-08-06T02:09:18;100714.09;;;15.79;100.00
20696;BME280;10507;52.754;13.040;2023-08-06T02:11:47;100704.41;;;15.77;100.00
20696;BME280;10507;52.754;13.040;2023-08-06T02:14:15;100707.88;;;15.79;100.00
20696;BME280;10507;52.754;13.040;2023-08-06T02:16:43;100718.41;;;15.82;100.00
20696;BME280;10507;52.754;13.040;2023-08-06T02:19:10;100726.16;;;15.87;100.00
20696;BME280;10507;52.754;13.040;2023-08-06T02:21:38;100704.75;;;15.85;100.00
20696;BME280;10507;52.754;13.040;2023-08-06T02:24:06;100680.72;;;15.82;100.00
20696;BME280;10507;52.754;13.040;2023-08-06T02:26:34;100706.56;;;15.85;100.00
20696;BME280;10507;52.754;13.040;2023-08-06T02:29:03;100693.44;;;15.80;100.00
20696;BME280;10507;52.754;13.040;2023-08-06T02:31:31;100732.72;;;15.83;100.00
20696;BME280;10507;52.754;13.040;2023-08-06T02:33:59;100737.34;;;15.80;100.00
20696;BME280;10507;52.754;13.040;2023-08-06T02:36:27;100728.66;;;15.77;100.00
20696;BME280;10507;52.754;13.040;2023-08-06T02:38:56;100738.56;;;15.76;100.00
20696;BME280;10507;52.754;13.040;2023-08-06T02:41:23;100749.34;;;15.76;100.00
20696;BME280;10507;52.754;13.040;2023-08-06T02:43:52;100762.56;;;15.79;100.00
20696;BME280;10507;52.754;13.040;2023-08-06T02:46:21;100787.56;;;15.82;100.00
20696;BME280;10507;52.754;13.040;2023-08-06T02:48:49;100782.19;;;15.82;100.00
20696;BME280;10507;52.754;13.040;2023-08-06T02:51:18;100776.69;;;15.83;100.00
20696;BME280;10507;52.754;13.040;2023-08-06T02:53:48;100785.63;;;15.84;100.00
20696;BME280;10507;52.754;13.040;2023-08-06T02:56:16;100794.47;;;15.86;100.00
20696;BME280;10507;52.754;13.040;2023-08-06T02:58:43;100789.94;;;15.86;100.00
20696;BME280;10507;52.754;13.040;2023-08-06T03:01:11;100781.00;;;15.86;100.00
20696;BME280;10507;52.754;13.040;2023-08-06T03:03:42;100770.31;;;15.84;100.00
20696;BME280;10507;52.754;13.040;2023-08-06T03:06:09;100750.09;;;15.78;100.00
20696;BME280;10507;52.754;13.040;2023-08-06T03:08:37;100759.13;;;15.77;100.00
20696;BME280;10507;52.754;13.040;2023-08-06T03:11:05;100768.19;;;15.76;100.00
20696;BME280;10507;52.754;13.040;2023-08-06T03:13:33;100790.47;;;15.78;100.00
20696;BME280;10507;52.754;13.040;2023-08-06T03:16:01;100796.59;;;15.80;100.00
20696;BME280;10507;52.754;13.040;2023-08-06T03:18:29;100819.88;;;15.82;100.00
20696;BME280;10507;52.754;13.040;2023-08-06T03:20:58;100819.97;;;15.80;100.00
20696;BME280;10507;52.754;13.040;2023-08-06T03:23:26;100818.34;;;15.77;100.00
20696;BME280;10507;52.754;13.040;2023-08-06T03:25:53;100822.66;;;15.80;100.00
20696;BME280;10507;52.754;13.040;2023-08-06T03:28:22;100828.91;;;15.80;100.00
20696;BME280;10507;52.754;13.040;2023-08-06T03:30:59;100823.72;;;15.77;100.00
20696;BME280;10507;52.754;13.040;2023-08-06T03:33:26;100829.03;;;15.79;100.00
20696;BME280;10507;52.754;13.040;2023-08-06T03:35:54;100833.41;;;15.80;100.00
20696;BME280;10507;52.754;13.040;2023-08-06T03:38:24;100837.09;;;15.79;100.00
20696;BME280;10507;52.754;13.040;2023-08-06T03:40:52;100849.56;;;15.80;100.00
20696;BME280;10507;52.754;13.040;2023-08-06T03:43:20;100829.13;;;15.77;100.00
20696;BME280;10507;52.754;13.040;2023-08-06T03:45:47;100838.03;;;15.78;100.00
20696;BME280;10507;52.754;13.040;2023-08-06T03:48:15;100861.19;;;15.80;100.00
20696;BME280;10507;52.754;13.040;2023-08-06T03:50:43;100868.31;;;15.82;100.00
20696;BME280;10507;52.754;13.040;2023-08-06T03:53:11;100862.09;;;15.81;100.00
20696;BME280;10507;52.754;13.040;2023-08-06T03:55:40;100848.72;;;15.79;100.00
20696;BME280;10507;52.754;13.040;2023-08-06T03:58:08;100835.47;;;15.76;100.00
20696;BME280;10507;52.754;13.040;2023-08-06T04:00:35;100823.97;;;15.74;100.00
20696;BME280;10507;52.754;13.040;2023-08-06T04:03:03;100832.03;;;15.74;100.00
20696;BME280;10507;52.754;13.040;2023-08-06T04:05:31;100832.88;;;15.75;100.00
20696;BME280;10507;52.754;13.040;2023-08-06T04:07:59;100847.34;;;15.74;100.00
20696;BME280;10507;52.754;13.040;2023-08-06T04:10:27;100857.97;;;15.75;100.00
20696;BME280;10507;52.754;13.040;2023-08-06T04:12:56;100876.50;;;15.80;100.00
20696;BME280;10507;52.754;13.040;2023-08-06T04:15:24;100886.09;;;15.84;100.00
20696;BME280;10507;52.754;13.040;2023-08-06T04:17:52;100868.31;;;15.82;100.00
20696;BME280;10507;52.754;13.040;2023-08-06T04:20:20;100866.50;;;15.82;100.00
20696;BME280;10507;52.754;13.040;2023-08-06T04:22:47;100880.63;;;15.86;100.00
20696;BME280;10507;52.754;13.040;2023-08-06T04:25:15;100895.69;;;15.88;100.00
20696;BME280;10507;52.754;13.040;2023-08-06T04:27:47;100898.31;;;15.90;100.00
20696;BME280;10507;52.754;13.040;2023-08-06T04:30:17;100896.13;;;15.95;100.00
20696;BME280;10507;52.754;13.040;2023-08-06T04:32:44;100903.25;;;15.96;100.00
20696;BME280;10507;52.754;13.040;2023-08-06T04:35:12;100902.16;;;15.98;100.00
20696;BME280;10507;52.754;13.040;2023-08-06T04:37:40;100887.75;;;15.99;100.00
20696;BME280;10507;52.754;13.040;2023-08-06T04:40:09;100886.44;;;16.05;100.00
20696;BME280;10507;52.754;13.040;2023-08-06T04:42:37;100866.63;;;16.06;100.00
20696;BME280;10507;52.754;13.040;2023-08-06T04:45:06;100833.47;;;16.06;100.00
20696;BME280;10507;52.754;13.040;2023-08-06T04:47:35;100837.53;;;16.11;100.00
20696;BME280;10507;52.754;13.040;2023-08-06T04:50:03;100830.13;;;16.15;100.00
20696;BME280;10507;52.754;13.040;2023-08-06T04:52:32;100818.25;;;16.17;100.00
20696;BME280;10507;52.754;13.040;2023-08-06T04:54:58;100806.50;;;16.18;100.00
20696;BME280;10507;52.754;13.040;2023-08-06T04:57:26;100808.34;;;16.18;100.00
20696;BME280;10507;52.754;13.040;2023-08-06T04:59:54;100818.16;;;16.19;100.00
20696;BME280;10507;52.754;13.040;2023-08-06T05:02:22;100827.84;;;16.21;100.00
20696;BME280;10507;52.754;13.040;2023-08-06T05:04:51;100839.25;;;16.25;100.00
20696;BME280;10507;52.754;13.040;2023-08-06T05:07:19;100838.41;;;16.25;100.00
20696;BME280;10507;52.754;13.040;2023-08-06T05:09:47;100829.38;;;16.26;100.00
20696;BME280;10507;52.754;13.040;2023-08-06T05:12:15;100820.41;;;16.25;100.00
20696;BME280;10507;52.754;13.040;2023-08-06T05:14:43;100806.31;;;16.21;100.00
20696;BME280;10507;52.754;13.040;2023-08-06T05:17:10;100830.22;;;16.26;100.00
20696;BME280;10507;52.754;13.040;2023-08-06T05:19:38;100818.59;;;16.26;100.00
20696;BME280;10507;52.754;13.040;2023-08-06T05:22:07;100840.66;;;16.31;100.00
20696;BME280;10507;52.754;13.040;2023-08-06T05:24:35;100844.88;;;16.35;100.00
20696;BME280;10507;52.754;13.040;2023-08-06T05:27:04;100819.88;;;16.33;100.00
20696;BME280;10507;52.754;13.040;2023-08-06T05:29:32;100803.91;;;16.30;100.00
20696;BME280;10507;52.754;13.040;2023-08-06T05:31:59;100796.56;;;16.32;100.00
20696;BME280;10507;52.754;13.040;2023-08-06T05:34:27;100781.59;;;16.28;100.00
20696;BME280;10507;52.754;13.040;2023-08-06T05:36:55;100796.56;;;16.32;100.00
20696;BME280;10507;52.754;13.040;2023-08-06T05:39:24;100823.94;;;16.38;100.00
20696;BME280;10507;52.754;13.040;2023-08-06T05:41:52;100825.53;;;16.41;100.00
20696;BME280;10507;52.754;13.040;2023-08-06T05:44:23;100829.75;;;16.45;100.00
20696;BME280;10507;52.754;13.040;2023-08-06T05:46:50;100778.47;;;16.34;100.00
20696;BME280;10507;52.754;13.040;2023-08-06T05:49:20;100781.91;;;16.36;100.00
20696;BME280;10507;52.754;13.040;2023-08-06T05:51:47;100820.91;;;16.43;100.00
20696;BME280;10507;52.754;13.040;2023-08-06T05:54:16;100829.56;;;16.48;100.00
20696;BME280;10507;52.754;13.040;2023-08-06T05:56:46;100838.81;;;16.57;100.00
20696;BME280;10507;52.754;13.040;2023-08-06T05:59:14;100847.84;;;16.69;100.00
20696;BME280;10507;52.754;13.040;2023-08-06T06:01:42;100827.22;;;16.80;100.00
20696;BME280;10507;52.754;13.040;2023-08-06T06:04:10;100801.41;;;16.89;100.00
20696;BME280;10507;52.754;13.040;2023-08-06T06:06:38;100735.69;;;16.90;100.00
20696;BME280;10507;52.754;13.040;2023-08-06T06:09:06;100705.34;;;16.99;100.00
20696;BME280;10507;52.754;13.040;2023-08-06T06:11:33;100698.91;;;17.13;100.00
20696;BME280;10507;52.754;13.040;2023-08-06T06:14:03;100655.13;;;17.21;100.00
20696;BME280;10507;52.754;13.040;2023-08-06T06:16:30;100632.59;;;17.33;100.00
20696;BME280;10507;52.754;13.040;2023-08-06T06:18:58;100562.28;;;17.35;100.00
20696;BME280;10507;52.754;13.040;2023-08-06T06:21:26;100529.69;;;17.38;100.00
20696;BME280;10507;52.754;13.040;2023-08-06T06:23:54;100478.41;;;17.38;100.00
20696;BME280;10507;52.754;13.040;2023-08-06T06:26:23;100473.34;;;17.44;100.00
20696;BME280;10507;52.754;13.040;2023-08-06T06:28:50;100417.75;;;17.42;100.00
20696;BME280;10507;52.754;13.040;2023-08-06T06:31:20;100397.25;;;17.51;100.00
20696;BME280;10507;52.754;13.040;2023-08-06T06:33:48;100410.72;;;17.62;100.00
20696;BME280;10507;52.754;13.040;2023-08-06T06:36:15;100364.34;;;17.57;100.00
20696;BME280;10507;52.754;13.040;2023-08-06T06:38:43;100357.25;;;17.56;100.00
20696;BME280;10507;52.754;13.040;2023-08-06T06:41:11;100355.41;;;17.56;100.00
20696;BME280;10507;52.754;13.040;2023-08-06T06:43:39;100334.31;;;17.50;100.00
20696;BME280;10507;52.754;13.040;2023-08-06T06:46:07;100365.19;;;17.57;100.00
20696;BME280;10507;52.754;13.040;2023-08-06T06:48:36;100356.59;;;17.63;100.00
20696;BME280;10507;52.754;13.040;2023-08-06T06:51:04;100371.56;;;17.67;100.00
20696;BME280;10507;52.754;13.040;2023-08-06T06:53:31;100341.00;;;17.67;100.00
20696;BME280;10507;52.754;13.040;2023-08-06T06:56:02;100350.00;;;17.77;100.00
20696;BME280;10507;52.754;13.040;2023-08-06T06:58:30;100347.06;;;17.80;100.00
20696;BME280;10507;52.754;13.040;2023-08-06T07:00:58;100312.94;;;17.79;100.00
20696;BME280;10507;52.754;13.040;2023-08-06T07:03:26;100292.34;;;17.78;100.00
20696;BME280;10507;52.754;13.040;2023-08-06T07:05:58;100283.22;;;17.79;100.00
20696;BME280;10507;52.754;13.040;2023-08-06T07:08:26;100252.94;;;17.76;100.00
20696;BME280;10507;52.754;13.040;2023-08-06T07:11:00;100258.06;;;17.79;100.00
20696;BME280;10507;52.754;13.040;2023-08-06T07:13:29;100222.13;;;17.78;100.00
20696;BME280;10507;52.754;13.040;2023-08-06T07:15:57;100216.72;;;17.78;100.00
20696;BME280;10507;52.754;13.040;2023-08-06T07:18:25;100204.59;;;17.73;100.00
20696;BME280;10507;52.754;13.040;2023-08-06T07:20:54;100262.84;;;17.86;100.00
20696;BME280;10507;52.754;13.040;2023-08-06T07:23:25;100301.91;;;18.03;100.00
20696;BME280;10507;52.754;13.040;2023-08-06T07:25:53;100254.72;;;18.07;100.00
20696;BME280;10507;52.754;13.040;2023-08-06T07:28:21;100175.56;;;17.86;100.00
20696;BME280;10507;52.754;13.040;2023-08-06T07:30:49;100196.50;;;17.94;100.00
20696;BME280;10507;52.754;13.040;2023-08-06T07:33:17;100214.59;;;18.03;100.00
20696;BME280;10507;52.754;13.040;2023-08-06T07:35:45;100180.56;;;17.91;100.00
20696;BME280;10507;52.754;13.040;2023-08-06T07:38:17;100173.25;;;17.81;100.00
20696;BME280;10507;52.754;13.040;2023-08-06T07:40:46;100221.91;;;17.91;100.00
20696;BME280;10507;52.754;13.040;2023-08-06T07:43:14;100209.28;;;17.92;100.00
20696;BME280;10507;52.754;13.040;2023-08-06T07:45:42;100182.13;;;17.93;100.00
20696;BME280;10507;52.754;13.040;2023-08-06T07:48:09;100181.91;;;18.06;100.00
20696;BME280;10507;52.754;13.040;2023-08-06T07:50:37;100200.16;;;18.23;100.00
20696;BME280;10507;52.754;13.040;2023-08-06T07:53:05;100148.41;;;18.18;100.00
20696;BME280;10507;52.754;13.040;2023-08-06T07:55:33;100129.91;;;18.23;100.00
20696;BME280;10507;52.754;13.040;2023-08-06T07:58:02;100161.50;;;18.33;100.00
20696;BME280;10507;52.754;13.040;2023-08-06T08:00:33;100102.16;;;18.21;100.00
20696;BME280;10507;52.754;13.040;2023-08-06T08:03:01;100103.84;;;18.13;100.00
20696;BME280;10507;52.754;13.040;2023-08-06T08:05:30;100101.69;;;18.06;100.00
20696;BME280;10507;52.754;13.040;2023-08-06T08:07:58;100128.16;;;18.13;100.00
20696;BME280;10507;52.754;13.040;2023-08-06T08:10:26;100095.03;;;18.11;100.00
20696;BME280;10507;52.754;13.040;2023-08-06T08:12:53;100081.75;;;17.98;100.00
20696;BME280;10507;52.754;13.040;2023-08-06T08:15:24;100132.25;;;18.07;100.00
20696;BME280;10507;52.754;13.040;2023-08-06T08:17:52;100126.59;;;18.10;100.00
20696;BME280;10507;52.754;13.040;2023-08-06T08:20:20;100130.16;;;18.20;100.00
20696;BME280;10507;52.754;13.040;2023-08-06T08:22:48;100114.25;;;18.27;100.00
20696;BME280;10507;52.754;13.040;2023-08-06T08:25:16;100126.78;;;18.38;100.00
20696;BME280;10507;52.754;13.040;2023-08-06T08:27:44;100064.19;;;18.42;100.00
20696;BME280;10507;52.754;13.040;2023-08-06T08:30:12;100062.50;;;18.51;100.00
20696;BME280;10507;52.754;13.040;2023-08-06T08:32:41;100074.72;;;18.65;100.00
20696;BME280;10507;52.754;13.040;2023-08-06T08:35:09;100066.03;;;18.71;100.00
20696;BME280;10507;52.754;13.040;2023-08-06T08:37:39;100003.16;;;18.59;100.00
20696;BME280;10507;52.754;13.040;2023-08-06T08:40:08;99948.53;;;18.46;100.00
20696;BME280;10507;52.754;13.040;2023-08-06T08:42:36;100008.13;;;18.64;100.00
20696;BME280;10507;52.754;13.040;2023-08-06T08:45:05;100025.94;;;18.86;100.00
20696;BME280;10507;52.754;13.040;2023-08-06T08:47:35;99937.53;;;18.77;100.00
20696;BME280;10507;52.754;13.040;2023-08-06T08:50:06;99959.16;;;18.77;100.00
20696;BME280;10507;52.754;13.040;2023-08-06T08:52:36;99953.47;;;18.80;100.00
20696;BME280;10507;52.754;13.040;2023-08-06T08:55:04;99925.97;;;18.84;100.00
20696;BME280;10507;52.754;13.040;2023-08-06T08:57:34;99943.75;;;18.87;100.00
20696;BME280;10507;52.754;13.040;2023-08-06T09:00:02;99953.00;;;18.94;100.00
20696;BME280;10507;52.754;13.040;2023-08-06T09:02:31;99932.09;;;18.86;100.00
20696;BME280;10507;52.754;13.040;2023-08-06T09:05:01;99955.69;;;19.04;100.00
20696;BME280;10507;52.754;13.040;2023-08-06T09:07:38;99883.34;;;18.96;100.00
20696;BME280;10507;52.754;13.040;2023-08-06T09:10:10;99899.00;;;19.02;100.00
20696;BME280;10507;52.754;13.040;2023-08-06T09:12:40;99891.47;;;18.96;100.00
20696;BME280;10507;52.754;13.040;2023-08-06T09:15:09;99834.41;;;18.89;100.00
20696;BME280;10507;52.754;13.040;2023-08-06T09:17:37;99838.03;;;18.80;100.00
20696;BME280;10507;52.754;13.040;2023-08-06T09:20:12;99865.47;;;18.85;100.00
20696;BME280;10507;52.754;13.040;2023-08-06T09:22:42;99870.03;;;18.85;100.00
20696;BME280;10507;52.754;13.040;2023-08-06T09:25:11;99840.72;;;18.80;100.00
20696;BME280;10507;52.754;13.040;2023-08-06T09:27:40;99819.94;;;18.81;100.00
20696;BME280;10507;52.754;13.040;2023-08-06T09:30:08;99838.59;;;18.84;100.00
20696;BME280;10507;52.754;13.040;2023-08-06T09:32:45;99902.66;;;19.11;100.00
20696;BME280;10507;52.754;13.040;2023-08-06T09:35:15;99896.44;;;19.28;100.00
20696;BME280;10507;52.754;13.040;2023-08-06T09:37:45;99858.94;;;19.34;100.00
20696;BME280;10507;52.754;13.040;2023-08-06T09:40:28;99843.16;;;19.47;100.00
20696;BME280;10507;52.754;13.040;2023-08-06T09:42:56;99809.84;;;19.46;100.00
20696;BME280;10507;52.754;13.040;2023-08-06T09:45:30;99806.94;;;19.66;100.00
20696;BME280;10507;52.754;13.040;2023-08-06T09:47:59;99782.34;;;19.59;100.00
20696;BME280;10507;52.754;13.040;2023-08-06T09:50:29;99794.72;;;19.62;100.00
20696;BME280;10507;52.754;13.040;2023-08-06T09:53:00;99796.56;;;19.71;100.00
20696;BME280;10507;52.754;13.040;2023-08-06T09:55:28;99848.84;;;19.89;100.00
20696;BME280;10507;52.754;13.040;2023-08-06T09:57:56;99785.28;;;19.84;100.00
20696;BME280;10507;52.754;13.040;2023-08-06T10:00:24;99753.59;;;19.76;100.00
20696;BME280;10507;52.754;13.040;2023-08-06T10:02:53;99767.09;;;19.94;100.00
20696;BME280;10507;52.754;13.040;2023-08-06T10:05:23;99757.56;;;19.90;100.00
20696;BME280;10507;52.754;13.040;2023-08-06T10:07:51;99730.03;;;19.77;100.00
20696;BME280;10507;52.754;13.040;2023-08-06T10:10:22;99745.44;;;19.76;100.00
20696;BME280;10507;52.754;13.040;2023-08-06T10:12:52;99683.53;;;19.63;100.00
20696;BME280;10507;52.754;13.040;2023-08-06T10:15:24;99675.97;;;19.67;100.00
20696;BME280;10507;52.754;13.040;2023-08-06T10:17:56;99678.22;;;19.71;100.00
20696;BME280;10507;52.754;13.040;2023-08-06T10:20:24;99654.28;;;19.67;100.00
20696;BME280;10507;52.754;13.040;2023-08-06T10:23:03;99657.09;;;19.57;100.00
20696;BME280;10507;52.754;13.040;2023-08-06T10:25:33;99659.66;;;19.59;100.00
20696;BME280;10507;52.754;13.040;2023-08-06T10:28:07;99639.97;;;19.48;100.00
20696;BME280;10507;52.754;13.040;2023-08-06T10:30:41;99685.34;;;19.55;100.00
20696;BME280;10507;52.754;13.040;2023-08-06T10:33:09;99744.91;;;19.72;100.00
20696;BME280;10507;52.754;13.040;2023-08-06T10:35:40;99663.19;;;19.59;100.00
20696;BME280;10507;52.754;13.040;2023-08-06T10:38:11;99646.31;;;19.65;100.00
20696;BME280;10507;52.754;13.040;2023-08-06T10:40:43;99628.63;;;19.71;100.00
20696;BME280;10507;52.754;13.040;2023-08-06T10:43:25;99652.59;;;19.92;100.00
20696;BME280;10507;52.754;13.040;2023-08-06T10:45:53;99647.59;;;19.79;100.00
20696;BME280;10507;52.754;13.040;2023-08-06T10:48:31;99726.66;;;20.01;100.00
20696;BME280;10507;52.754;13.040;2023-08-06T10:51:00;99615.09;;;19.79;100.00
20696;BME280;10507;52.754;13.040;2023-08-06T10:53:29;99563.63;;;19.79;100.00
20696;BME280;10507;52.754;13.040;2023-08-06T10:56:01;99526.63;;;19.62;100.00
20696;BME280;10507;52.754;13.040;2023-08-06T10:58:33;99538.56;;;19.69;100.00
20696;BME280;10507;52.754;13.040;2023-08-06T11:01:01;99523.16;;;19.69;100.00
20696;BME280;10507;52.754;13.040;2023-08-06T11:03:54;99567.72;;;19.83;100.00
20696;BME280;10507;52.754;13.040;2023-08-06T11:06:52;99501.00;;;19.74;100.00
20696;BME280;10507;52.754;13.040;2023-08-06T11:09:20;99471.63;;;19.61;100.00
20696;BME280;10507;52.754;13.040;2023-08-06T11:11:49;99459.97;;;19.61;100.00
20696;BME280;10507;52.754;13.040;2023-08-06T11:14:18;99524.31;;;19.67;100.00
20696;BME280;10507;52.754;13.040;2023-08-06T11:16:46;99547.03;;;19.74;100.00
20696;BME280;10507;52.754;13.040;2023-08-06T11:19:14;99647.03;;;20.02;100.00
20696;BME280;10507;52.754;13.040;2023-08-06T11:21:43;99464.41;;;19.70;100.00
20696;BME280;10507;52.754;13.040;2023-08-06T11:24:11;99467.47;;;19.75;100.00
20696;BME280;10507;52.754;13.040;2023-08-06T11:26:38;99465.78;;;19.74;100.00
20696;BME280;10507;52.754;13.040;2023-08-06T11:29:08;99509.50;;;19.87;100.00
20696;BME280;10507;52.754;13.040;2023-08-06T11:31:36;99473.59;;;19.85;100.00
20696;BME280;10507;52.754;13.040;2023-08-06T11:34:04;99496.50;;;19.91;100.00
20696;BME280;10507;52.754;13.040;2023-08-06T11:36:32;99493.59;;;19.92;100.00
20696;BME280;10507;52.754;13.040;2023-08-06T11:39:01;99524.94;;;20.03;100.00
20696;BME280;10507;52.754;13.040;2023-08-06T11:41:29;99383.50;;;19.75;100.00
20696;BME280;10507;52.754;13.040;2023-08-06T11:43:57;99426.03;;;19.83;100.00
20696;BME280;10507;52.754;13.040;2023-08-06T11:46:27;99478.88;;;19.95;100.00
20696;BME280;10507;52.754;13.040;2023-08-06T11:48:56;99391.47;;;19.77;100.00
20696;BME280;10507;52.754;13.040;2023-08-06T11:51:24;99335.88;;;19.48;100.00
20696;BME280;10507;52.754;13.040;2023-08-06T11:53:55;99374.94;;;19.29;100.00
20696;BME280;10507;52.754;13.040;2023-08-06T11:56:24;99436.53;;;19.35;100.00
20696;BME280;10507;52.754;13.040;2023-08-06T11:58:54;99439.13;;;19.10;100.00
20696;BME280;10507;52.754;13.040;2023-08-06T12:01:22;99501.28;;;19.02;100.00
20696;BME280;10507;52.754;13.040;2023-08-06T12:03:52;99526.66;;;19.01;100.00
20696;BME280;10507;52.754;13.040;2023-08-06T12:06:20;99553.03;;;18.99;100.00
20696;BME280;10507;52.754;13.040;2023-08-06T12:08:48;99617.44;;;19.22;100.00
20696;BME280;10507;52.754;13.040;2023-08-06T12:11:17;99571.03;;;19.17;100.00
20696;BME280;10507;52.754;13.040;2023-08-06T12:13:45;99571.09;;;19.25;100.00
20696;BME280;10507;52.754;13.040;2023-08-06T12:16:13;99594.78;;;19.49;100.00
20696;BME280;10507;52.754;13.040;2023-08-06T12:18:41;99601.47;;;19.63;100.00
20696;BME280;10507;52.754;13.040;2023-08-06T12:21:10;99510.31;;;19.45;100.00
20696;BME280;10507;52.754;13.040;2023-08-06T12:23:38;99490.56;;;19.53;100.00
20696;BME280;10507;52.754;13.040;2023-08-06T12:26:05;99472.09;;;19.48;100.00
20696;BME280;10507;52.754;13.040;2023-08-06T12:28:33;99462.97;;;19.49;100.00
20696;BME280;10507;52.754;13.040;2023-08-06T12:31:01;99434.00;;;19.42;100.00
20696;BME280;10507;52.754;13.040;2023-08-06T12:33:29;99459.91;;;19.44;100.00
20696;BME280;10507;52.754;13.040;2023-08-06T12:35:57;99489.31;;;19.39;100.00
20696;BME280;10507;52.754;13.040;2023-08-06T12:38:26;99492.84;;;19.31;100.00
20696;BME280;10507;52.754;13.040;2023-08-06T12:40:55;99473.00;;;19.23;100.00
20696;BME280;10507;52.754;13.040;2023-08-06T12:43:23;99522.41;;;19.25;100.00